createdAt,value
2023-05-04T00:01:01.794Z,13.20
2023-05-04T00:03:29.590Z,16.58
2023-05-04T00:05:56.751Z,16.83
2023-05-04T00:08:24.297Z,19.45
2023-05-04T00:10:51.514Z,19.40
2023-05-04T00:13:18.750Z,18.33
2023-05-04T00:15:45.958Z,18.08
2023-05-04T00:18:13.365Z,19.17
2023-05-04T00:20:40.551Z,20.00
2023-05-04T00:23:07.937Z,19.95
2023-05-04T00:25:34.904Z,17.83
2023-05-04T00:28:02.191Z,17.02
2023-05-04T00:30:29.521Z,16.27
2023-05-04T00:32:56.862Z,17.88
2023-05-04T00:35:25.217Z,17.20
2023-05-04T00:37:52.589Z,14.10
2023-05-04T00:40:19.873Z,13.18
2023-05-04T00:42:47.426Z,12.50
2023-05-04T00:45:15.131Z,11.85
2023-05-04T00:47:42.965Z,12.27
2023-05-04T00:50:11.022Z,11.35
2023-05-04T00:52:42.006Z,12.73
2023-05-04T00:55:10.903Z,12.45
2023-05-04T00:57:39.374Z,13.57
2023-05-04T01:00:08.638Z,13.10
2023-05-04T01:02:36.067Z,11.55
2023-05-04T01:05:03.422Z,10.68
2023-05-04T01:07:51.468Z,9.68
2023-05-04T01:10:21.725Z,7.45
2023-05-04T01:12:57.205Z,9.20
2023-05-04T01:15:24.690Z,8.38
2023-05-04T01:17:52.049Z,8.23
2023-05-04T01:20:19.427Z,7.45
2023-05-04T01:22:46.833Z,7.65
2023-05-04T01:25:14.317Z,7.03
2023-05-04T01:27:54.060Z,6.43
2023-05-04T01:30:26.071Z,7.35
2023-05-04T01:32:54.386Z,7.00
2023-05-04T01:35:21.666Z,8.65
2023-05-04T01:37:49.017Z,7.78
2023-05-04T01:40:16.358Z,8.40
2023-05-04T01:42:43.784Z,8.20
2023-05-04T01:45:12.288Z,8.75
2023-05-04T01:47:39.770Z,8.32
2023-05-04T01:50:07.372Z,8.00
2023-05-04T01:52:34.852Z,7.53
2023-05-04T01:55:01.962Z,8.48
2023-05-04T01:57:29.325Z,8.90
2023-05-04T01:59:56.829Z,8.90
2023-05-04T02:02:25.819Z,9.57
2023-05-04T02:04:53.113Z,8.23
2023-05-04T02:07:20.408Z,9.25
2023-05-04T02:09:47.771Z,9.25
2023-05-04T02:12:15.472Z,9.38
2023-05-04T02:14:42.514Z,10.82
2023-05-04T02:17:09.816Z,9.90
2023-05-04T02:19:37.483Z,10.48
2023-05-04T02:22:04.800Z,10.00
2023-05-04T02:24:31.892Z,9.90
2023-05-04T02:26:59.255Z,9.18
2023-05-04T02:29:26.363Z,10.18
2023-05-04T02:31:53.796Z,9.48
2023-05-04T02:34:20.846Z,9.75
2023-05-04T02:36:48.146Z,9.07
2023-05-04T02:39:15.535Z,8.65
2023-05-04T02:41:42.878Z,8.02
2023-05-04T02:44:09.886Z,7.75
2023-05-04T02:46:37.264Z,7.72
2023-05-04T02:49:04.437Z,8.57
2023-05-04T02:51:31.815Z,8.00
2023-05-04T02:53:58.999Z,7.88
2023-05-04T02:56:26.290Z,8.38
2023-05-04T02:58:53.474Z,8.45
2023-05-04T03:01:21.018Z,8.40
2023-05-04T03:03:48.407Z,8.70
2023-05-04T03:06:15.764Z,7.18
2023-05-04T03:08:43.602Z,7.00
2023-05-04T03:11:10.916Z,5.78
2023-05-04T03:13:38.009Z,7.22
2023-05-04T03:16:05.850Z,6.22
2023-05-04T03:18:33.135Z,6.90
2023-05-04T03:21:01.189Z,6.03
2023-05-04T03:23:29.685Z,6.32
2023-05-04T03:25:57.134Z,6.65
2023-05-04T03:28:24.594Z,6.13
2023-05-04T03:30:51.981Z,6.35
2023-05-04T03:33:20.858Z,6.07
2023-05-04T03:35:48.180Z,6.95
2023-05-04T03:38:15.359Z,5.53
2023-05-04T03:40:44.589Z,5.90
2023-05-04T03:43:12.876Z,5.90
2023-05-04T03:45:40.375Z,7.00
2023-05-04T03:48:07.608Z,7.18
2023-05-04T03:50:34.959Z,7.28
2023-05-04T03:53:01.992Z,7.38
2023-05-04T03:55:29.786Z,7.82
2023-05-04T03:57:56.877Z,7.50
2023-05-04T04:00:24.661Z,7.07
2023-05-04T04:02:58.837Z,7.18
2023-05-04T04:05:26.412Z,6.80
2023-05-04T04:07:54.267Z,6.72
2023-05-04T04:10:21.825Z,6.65
2023-05-04T04:12:48.994Z,7.45
2023-05-04T04:15:16.589Z,6.93
2023-05-04T04:17:43.680Z,7.10
2023-05-04T04:20:11.983Z,7.07
2023-05-04T04:22:39.011Z,6.68
2023-05-04T04:25:06.624Z,6.15
2023-05-04T04:27:33.698Z,6.57
2023-05-04T04:30:01.337Z,6.43
2023-05-04T04:32:29.202Z,6.50
2023-05-04T04:34:56.596Z,6.68
2023-05-04T04:37:24.245Z,6.05
2023-05-04T04:39:52.001Z,6.65
2023-05-04T04:42:19.139Z,6.20
2023-05-04T04:44:46.476Z,5.38
2023-05-04T04:47:14.063Z,6.40
2023-05-04T04:49:41.601Z,5.70
2023-05-04T04:52:08.905Z,6.25
2023-05-04T04:54:36.483Z,5.97
2023-05-04T04:57:04.105Z,6.20
2023-05-04T04:59:31.566Z,5.63
2023-05-04T05:01:59.314Z,5.68
2023-05-04T05:04:26.857Z,5.30
2023-05-04T05:06:54.295Z,5.72
2023-05-04T05:09:21.679Z,4.60
2023-05-04T05:11:48.638Z,4.55
2023-05-04T05:14:15.948Z,5.15
2023-05-04T05:16:43.131Z,4.38
2023-05-04T05:19:10.554Z,4.28
2023-05-04T05:21:37.760Z,4.18
2023-05-04T05:24:05.433Z,3.92
2023-05-04T05:26:32.732Z,4.82
2023-05-04T05:29:00.052Z,4.05
2023-05-04T05:31:27.712Z,4.00
2023-05-04T05:33:55.330Z,4.68
2023-05-04T05:36:22.368Z,3.92
2023-05-04T05:38:50.426Z,3.60
2023-05-04T05:41:17.545Z,4.28
2023-05-04T05:43:44.951Z,4.70
2023-05-04T05:46:12.293Z,4.10
2023-05-04T05:48:39.639Z,4.05
2023-05-04T05:51:07.687Z,3.83
2023-05-04T05:53:34.957Z,4.38
2023-05-04T05:56:01.987Z,3.53
2023-05-04T05:58:29.370Z,3.90
2023-05-04T06:00:56.555Z,4.75
2023-05-04T06:03:24.216Z,4.18
2023-05-04T06:05:51.386Z,4.35
2023-05-04T06:08:18.973Z,4.25
2023-05-04T06:10:46.334Z,4.25
2023-05-04T06:13:13.851Z,4.75
2023-05-04T06:15:41.133Z,4.20
2023-05-04T06:18:08.412Z,4.80
2023-05-04T06:20:35.504Z,4.25
2023-05-04T06:23:02.813Z,4.30
2023-05-04T06:25:29.845Z,4.82
2023-05-04T06:27:57.235Z,4.07
2023-05-04T06:30:24.524Z,4.55
2023-05-04T06:32:52.171Z,4.45
2023-05-04T06:35:19.336Z,4.53
2023-05-04T06:37:46.685Z,4.97
2023-05-04T06:40:15.397Z,4.30
2023-05-04T06:42:42.794Z,3.95
2023-05-04T06:45:10.067Z,3.50
2023-05-04T06:47:38.131Z,3.88
2023-05-04T06:50:12.039Z,4.53
2023-05-04T06:52:41.388Z,3.83
2023-05-04T06:55:08.835Z,3.70
2023-05-04T06:57:36.709Z,4.43
2023-05-04T07:00:05.273Z,4.95
2023-05-04T07:02:32.726Z,4.18
2023-05-04T07:05:00.725Z,3.78
2023-05-04T07:07:28.274Z,4.15
2023-05-04T07:09:55.228Z,3.95
2023-05-04T07:12:22.627Z,3.92
2023-05-04T07:14:49.777Z,3.75
2023-05-04T07:17:17.121Z,3.03
2023-05-04T07:19:44.077Z,3.75
2023-05-04T07:22:11.717Z,3.92
2023-05-04T07:24:38.715Z,4.35
2023-05-04T07:27:06.063Z,3.60
2023-05-04T07:29:33.058Z,3.88
2023-05-04T07:32:00.747Z,3.38
2023-05-04T07:34:41.936Z,3.15
2023-05-04T07:37:13.401Z,3.28
2023-05-04T07:39:40.514Z,3.70
2023-05-04T07:42:08.515Z,3.25
2023-05-04T07:44:35.589Z,3.38
2023-05-04T07:47:02.951Z,3.08
2023-05-04T07:49:29.915Z,3.92
2023-05-04T07:51:57.280Z,3.53
2023-05-04T07:54:24.876Z,3.20
2023-05-04T07:56:52.212Z,3.90
2023-05-04T07:59:19.413Z,3.47
2023-05-04T08:01:47.390Z,3.33
2023-05-04T08:04:14.671Z,3.03
2023-05-04T08:06:42.023Z,3.10
2023-05-04T08:09:09.368Z,2.50
2023-05-04T08:11:37.798Z,14.18
2023-05-04T08:14:05.028Z,3.05
2023-05-04T08:16:32.578Z,2.60
2023-05-04T08:19:01.189Z,2.30
2023-05-04T08:21:28.782Z,2.60
2023-05-04T08:23:56.047Z,2.20
2023-05-04T08:26:24.428Z,2.30
2023-05-04T08:28:51.722Z,2.42
2023-05-04T08:31:19.134Z,2.25
2023-05-04T08:33:46.300Z,2.40
2023-05-04T08:36:13.707Z,2.58
2023-05-04T08:38:40.773Z,2.28
2023-05-04T08:41:09.036Z,2.28
2023-05-04T08:43:37.182Z,2.47
2023-05-04T08:46:06.219Z,2.47
2023-05-04T08:48:34.967Z,2.50
2023-05-04T08:51:04.557Z,2.38
2023-05-04T08:53:32.787Z,2.38
2023-05-04T08:56:09.229Z,2.47
2023-05-04T08:58:38.365Z,2.35
2023-05-04T09:01:08.234Z,2.10
2023-05-04T09:03:35.941Z,2.10
2023-05-04T09:06:03.892Z,2.00
2023-05-04T09:08:31.047Z,2.05
2023-05-04T09:10:58.541Z,2.28
2023-05-04T09:13:25.588Z,2.03
2023-05-04T09:15:59.683Z,2.40
2023-05-04T09:18:37.972Z,2.20
2023-05-04T09:21:05.643Z,2.03
2023-05-04T09:23:33.635Z,1.88
2023-05-04T09:26:00.988Z,2.40
2023-05-04T09:28:36.161Z,2.13
2023-05-04T09:31:04.210Z,2.20
2023-05-04T09:33:32.082Z,1.92
2023-05-04T09:36:13.158Z,2.05
2023-05-04T09:38:40.470Z,1.85
2023-05-04T09:41:07.874Z,2.20
2023-05-04T09:43:42.240Z,1.90
2023-05-04T09:46:19.786Z,2.40
2023-05-04T09:48:57.116Z,1.83
2023-05-04T09:51:27.313Z,1.95
2023-05-04T09:53:54.835Z,2.03
2023-05-04T09:56:48.715Z,1.98
2023-05-04T09:59:18.020Z,1.92
2023-05-04T10:01:45.615Z,2.20
2023-05-04T10:04:13.086Z,2.10
2023-05-04T10:06:43.255Z,2.58
2023-05-04T10:09:11.645Z,1.80
2023-05-04T10:11:39.445Z,2.10
2023-05-04T10:14:07.450Z,2.20
2023-05-04T10:16:51.630Z,2.05
2023-05-04T10:19:49.980Z,1.98
2023-05-04T10:22:33.164Z,2.13
2023-05-04T10:25:38.561Z,1.90
2023-05-04T10:28:24.139Z,2.15
2023-05-04T10:30:58.601Z,1.80
2023-05-04T10:33:26.750Z,2.40
2023-05-04T10:35:54.655Z,2.30
2023-05-04T10:38:39.184Z,2.60
2023-05-04T10:41:19.504Z,2.20
2023-05-04T10:43:54.223Z,2.05
2023-05-04T10:46:23.067Z,1.83
2023-05-04T10:48:51.324Z,1.90
2023-05-04T10:51:19.801Z,1.80
2023-05-04T10:53:48.047Z,2.00
2023-05-04T10:56:25.655Z,2.30
2023-05-04T10:58:53.609Z,1.98
2023-05-04T11:01:21.920Z,2.17
2023-05-04T11:03:49.623Z,1.80
2023-05-04T11:06:24.035Z,2.88
2023-05-04T11:09:03.146Z,3.25
2023-05-04T11:11:30.579Z,2.83
2023-05-04T11:13:58.662Z,2.05
2023-05-04T11:16:27.032Z,2.08
2023-05-04T11:18:57.980Z,2.28
2023-05-04T11:21:26.172Z,2.30
2023-05-04T11:24:00.921Z,2.40
2023-05-04T11:26:30.190Z,2.05
2023-05-04T11:28:57.592Z,2.30
2023-05-04T11:31:25.760Z,2.30
2023-05-04T11:33:55.014Z,2.08
2023-05-04T11:36:23.047Z,2.08
2023-05-04T11:38:51.054Z,2.20
2023-05-04T11:41:18.815Z,1.95
2023-05-04T11:43:46.802Z,2.03
2023-05-04T11:46:16.690Z,1.83
2023-05-04T11:48:44.360Z,2.50
2023-05-04T11:51:12.064Z,2.00
2023-05-04T11:53:40.728Z,2.10
2023-05-04T11:56:09.181Z,1.90
2023-05-04T11:58:36.811Z,2.05
2023-05-04T12:01:04.617Z,2.20
2023-05-04T12:03:48.547Z,2.22
2023-05-04T12:06:32.263Z,2.45
2023-05-04T12:09:04.776Z,2.67
2023-05-04T12:11:32.577Z,2.25
2023-05-04T12:14:18.955Z,2.42
2023-05-04T12:16:57.562Z,2.30
2023-05-04T12:19:24.745Z,2.13
2023-05-04T12:21:58.354Z,2.53
2023-05-04T12:24:28.049Z,2.40
2023-05-04T12:26:55.409Z,2.47
2023-05-04T12:29:22.461Z,2.45
2023-05-04T12:31:50.100Z,2.25
2023-05-04T12:34:17.193Z,2.60
2023-05-04T12:36:44.762Z,2.88
2023-05-04T12:39:11.884Z,2.33
2023-05-04T12:41:39.189Z,2.50
2023-05-04T12:44:08.666Z,2.58
2023-05-04T12:46:36.064Z,2.17
2023-05-04T12:49:05.853Z,2.92
2023-05-04T12:51:33.176Z,2.30
2023-05-04T12:54:00.403Z,2.20
2023-05-04T12:56:28.126Z,2.17
2023-05-04T12:58:55.125Z,2.00
2023-05-04T13:01:22.513Z,2.00
2023-05-04T13:03:49.726Z,2.10
2023-05-04T13:06:17.126Z,2.20
2023-05-04T13:08:44.562Z,2.20
2023-05-04T13:11:11.842Z,2.47
2023-05-04T13:13:38.916Z,2.22
2023-05-04T13:16:06.935Z,2.50
2023-05-04T13:18:34.030Z,2.28
2023-05-04T13:21:01.394Z,2.22
2023-05-04T13:23:28.462Z,2.17
2023-05-04T13:25:55.812Z,2.05
2023-05-04T13:28:22.946Z,1.80
2023-05-04T13:30:50.344Z,2.10
2023-05-04T13:33:28.859Z,1.70
2023-05-04T13:35:58.605Z,2.40
2023-05-04T13:38:26.332Z,2.17
2023-05-04T13:40:54.670Z,2.00
2023-05-04T13:43:22.068Z,2.05
2023-05-04T13:45:49.441Z,2.38
2023-05-04T13:48:16.619Z,2.63
2023-05-04T13:50:43.876Z,2.65
2023-05-04T13:53:13.744Z,2.75
2023-05-04T13:55:41.523Z,2.67
2023-05-04T13:58:08.520Z,2.13
2023-05-04T14:00:35.985Z,2.40
2023-05-04T14:03:03.699Z,2.22
2023-05-04T14:05:31.132Z,2.25
2023-05-04T14:07:58.217Z,2.28
2023-05-04T14:10:25.923Z,2.10
2023-05-04T14:12:53.030Z,2.17
2023-05-04T14:15:23.005Z,2.00
2023-05-04T14:17:50.482Z,2.20
2023-05-04T14:20:18.308Z,1.90
2023-05-04T14:22:45.533Z,1.92
2023-05-04T14:25:13.363Z,1.92
2023-05-04T14:27:41.746Z,2.03
2023-05-04T14:30:09.807Z,2.40
2023-05-04T14:32:37.004Z,1.98
2023-05-04T14:35:08.636Z,2.28
2023-05-04T14:37:38.236Z,2.17
2023-05-04T14:40:07.275Z,3.90
2023-05-04T14:42:35.072Z,2.50
2023-05-04T14:45:02.785Z,6.53
2023-05-04T14:47:30.009Z,2.35
2023-05-04T14:49:57.640Z,2.50
2023-05-04T14:52:25.155Z,2.20
2023-05-04T14:54:52.984Z,2.92
2023-05-04T14:57:20.041Z,2.47
2023-05-04T14:59:47.358Z,2.10
2023-05-04T15:02:14.387Z,2.42
2023-05-04T15:04:41.766Z,4.18
2023-05-04T15:07:09.560Z,2.15
2023-05-04T15:09:38.131Z,1.90
2023-05-04T15:12:05.731Z,3.00
2023-05-04T15:14:33.212Z,2.50
2023-05-04T15:17:00.234Z,5.35
2023-05-04T15:19:27.500Z,2.58
2023-05-04T15:21:54.508Z,2.03
2023-05-04T15:24:21.871Z,2.17
2023-05-04T15:26:48.972Z,6.88
2023-05-04T15:29:16.536Z,3.78
2023-05-04T15:31:43.738Z,2.25
2023-05-04T15:34:11.110Z,2.70
2023-05-04T15:36:38.155Z,3.92
2023-05-04T15:39:08.172Z,2.28
2023-05-04T15:41:35.775Z,2.33
2023-05-04T15:44:06.674Z,2.13
2023-05-04T15:46:34.459Z,2.35
2023-05-04T15:49:02.005Z,2.13
2023-05-04T15:51:30.771Z,2.50
2023-05-04T15:53:58.749Z,2.20
2023-05-04T15:56:25.752Z,2.03
2023-05-04T15:58:53.016Z,2.50
2023-05-04T16:01:20.126Z,2.33
2023-05-04T16:03:47.776Z,4.95
2023-05-04T16:06:15.808Z,3.25
2023-05-04T16:08:43.263Z,3.22
2023-05-04T16:11:10.410Z,2.53
2023-05-04T16:13:37.814Z,3.85
2023-05-04T16:16:05.244Z,2.38
2023-05-04T16:18:32.620Z,2.70
2023-05-04T16:20:59.710Z,3.55
2023-05-04T16:23:27.613Z,2.60
2023-05-04T16:25:54.853Z,2.67
2023-05-04T16:28:22.250Z,3.80
2023-05-04T16:30:49.983Z,2.72
2023-05-04T16:33:17.413Z,2.30
2023-05-04T16:35:44.510Z,2.40
2023-05-04T16:38:13.359Z,2.50
2023-05-04T16:40:42.089Z,3.63
2023-05-04T16:43:10.493Z,2.45
2023-05-04T16:45:38.189Z,2.65
2023-05-04T16:48:06.401Z,3.75
2023-05-04T16:50:33.908Z,2.70
2023-05-04T16:53:01.483Z,2.50
2023-05-04T16:55:28.558Z,3.08
2023-05-04T16:57:59.314Z,3.63
2023-05-04T17:00:26.441Z,2.65
2023-05-04T17:02:53.848Z,2.50
2023-05-04T17:05:21.065Z,3.33
2023-05-04T17:07:48.514Z,2.90
2023-05-04T17:10:15.622Z,3.72
2023-05-04T17:12:43.543Z,3.38
2023-05-04T17:15:11.679Z,3.42
2023-05-04T17:17:39.065Z,2.90
2023-05-04T17:20:08.482Z,3.17
2023-05-04T17:22:36.985Z,2.80
2023-05-04T17:25:04.259Z,2.88
2023-05-04T17:27:31.606Z,3.80
2023-05-04T17:29:58.709Z,2.90
2023-05-04T17:32:26.729Z,5.00
2023-05-04T17:34:54.086Z,3.47
2023-05-04T17:37:21.625Z,3.72
2023-05-04T17:39:48.918Z,2.85
2023-05-04T17:42:16.232Z,3.05
2023-05-04T17:44:43.455Z,2.72
2023-05-04T17:47:10.823Z,5.78
2023-05-04T17:49:37.992Z,4.43
2023-05-04T17:52:05.286Z,4.20
2023-05-04T17:54:32.403Z,4.50
2023-05-04T17:56:59.698Z,5.07
2023-05-04T17:59:26.743Z,4.95
2023-05-04T18:01:54.163Z,4.95
2023-05-04T18:04:21.294Z,4.47
2023-05-04T18:06:50.688Z,6.65
2023-05-04T18:09:19.595Z,6.28
2023-05-04T18:11:47.451Z,5.40
2023-05-04T18:14:14.570Z,5.35
2023-05-04T18:16:42.104Z,5.18
2023-05-04T18:19:09.154Z,5.60
2023-05-04T18:21:37.205Z,5.93
2023-05-04T18:24:04.784Z,7.28
2023-05-04T18:26:32.184Z,6.30
2023-05-04T18:29:07.701Z,6.55
2023-05-04T18:31:45.085Z,5.90
2023-05-04T18:34:12.273Z,7.10
2023-05-04T18:36:39.846Z,6.88
2023-05-04T18:39:08.295Z,7.22
2023-05-04T18:41:35.716Z,6.68
2023-05-04T18:44:15.127Z,7.38
2023-05-04T18:46:42.729Z,8.13
2023-05-04T18:49:09.808Z,8.60
2023-05-04T18:51:37.136Z,8.32
2023-05-04T18:54:04.435Z,7.97
2023-05-04T18:56:33.157Z,8.40
2023-05-04T18:59:00.233Z,8.65
2023-05-04T19:01:27.928Z,8.07
2023-05-04T19:03:55.176Z,7.68
2023-05-04T19:06:22.566Z,9.80
2023-05-04T19:08:49.713Z,8.90
2023-05-04T19:11:17.117Z,9.27
2023-05-04T19:13:44.502Z,9.27
2023-05-04T19:16:12.840Z,8.85
2023-05-04T19:18:40.217Z,10.05
2023-05-04T19:21:07.616Z,8.93
2023-05-04T19:23:34.763Z,9.57
2023-05-04T19:26:02.613Z,9.63
2023-05-04T19:28:32.497Z,9.68
2023-05-04T19:31:00.529Z,10.80
2023-05-04T19:33:36.637Z,10.48
2023-05-04T19:36:12.410Z,10.68
2023-05-04T19:38:39.860Z,10.15
2023-05-04T19:41:07.388Z,10.20
2023-05-04T19:43:34.627Z,12.05
2023-05-04T19:46:02.638Z,12.02
2023-05-04T19:48:29.628Z,12.57
2023-05-04T19:50:57.158Z,12.57
2023-05-04T19:53:24.179Z,13.32
2023-05-04T19:55:52.206Z,13.00
2023-05-04T19:58:19.262Z,13.43
2023-05-04T20:00:47.171Z,17.13
2023-05-04T20:03:14.373Z,18.17
2023-05-04T20:05:41.683Z,19.92
2023-05-04T20:08:08.789Z,19.45
2023-05-04T20:10:36.450Z,18.42
2023-05-04T20:13:03.890Z,20.17
2023-05-04T20:15:31.209Z,19.80
2023-05-04T20:17:58.357Z,20.83
2023-05-04T20:20:25.738Z,21.85
2023-05-04T20:22:52.993Z,22.55
2023-05-04T20:25:20.488Z,24.60
2023-05-04T20:27:48.765Z,28.10
2023-05-04T20:30:16.206Z,38.13
2023-05-04T20:32:44.086Z,38.25
2023-05-04T20:35:11.712Z,38.20
2023-05-04T20:37:39.049Z,37.90
2023-05-04T20:40:08.305Z,36.50
2023-05-04T20:42:35.740Z,35.20
2023-05-04T20:45:03.607Z,33.90
2023-05-04T20:47:30.612Z,31.00
2023-05-04T20:49:57.980Z,28.30
2023-05-04T20:52:25.044Z,27.70
2023-05-04T20:54:52.387Z,25.05
2023-05-04T20:57:19.458Z,22.77
2023-05-04T20:59:47.082Z,22.60
2023-05-04T21:02:14.060Z,21.35
2023-05-04T21:04:43.343Z,18.77
2023-05-04T21:07:10.355Z,16.40
2023-05-04T21:09:37.660Z,14.38
2023-05-04T21:12:05.001Z,14.48
2023-05-04T21:14:32.407Z,13.25
2023-05-04T21:16:59.462Z,12.48
2023-05-04T21:19:26.782Z,11.98
2023-05-04T21:21:54.452Z,13.00
2023-05-04T21:24:21.954Z,12.93
2023-05-04T21:26:49.616Z,11.70
2023-05-04T21:29:17.052Z,12.63
2023-05-04T21:31:44.211Z,11.13
2023-05-04T21:34:11.568Z,11.13
2023-05-04T21:36:40.265Z,11.18
2023-05-04T21:39:07.693Z,10.18
2023-05-04T21:41:34.779Z,11.27
2023-05-04T21:44:02.283Z,11.30
2023-05-04T21:46:29.394Z,10.43
2023-05-04T21:48:56.711Z,10.48
2023-05-04T21:51:23.790Z,11.10
2023-05-04T21:53:51.146Z,10.18
2023-05-04T21:56:18.155Z,10.13
2023-05-04T21:58:45.435Z,9.10
2023-05-04T22:01:17.148Z,8.95
2023-05-04T22:03:45.537Z,8.88
2023-05-04T22:06:12.831Z,8.73
2023-05-04T22:08:40.968Z,8.80
2023-05-04T22:11:09.169Z,8.45
2023-05-04T22:13:36.591Z,9.27
2023-05-04T22:16:03.688Z,8.60
2023-05-04T22:18:30.979Z,9.80
2023-05-04T22:20:58.050Z,7.15
2023-05-04T22:23:26.739Z,6.38
2023-05-04T22:25:53.762Z,6.28
2023-05-04T22:28:21.129Z,6.00
2023-05-04T22:30:48.348Z,5.80
2023-05-04T22:33:15.721Z,6.80
2023-05-04T22:35:43.866Z,6.60
2023-05-04T22:38:11.975Z,6.88
2023-05-04T22:40:40.456Z,6.57
2023-05-04T22:43:07.971Z,6.20
2023-05-04T22:45:36.403Z,7.20
2023-05-04T22:48:04.227Z,6.18
2023-05-04T22:50:32.170Z,6.50
2023-05-04T22:52:59.877Z,5.95
2023-05-04T22:55:27.325Z,6.00
2023-05-04T22:57:54.950Z,7.82
2023-05-04T23:00:22.318Z,8.05
2023-05-04T23:02:49.815Z,7.57
2023-05-04T23:05:17.006Z,10.25
2023-05-04T23:07:44.346Z,11.00
2023-05-04T23:10:11.375Z,10.05
2023-05-04T23:12:38.776Z,11.00
2023-05-04T23:15:06.589Z,10.10
2023-05-04T23:17:34.311Z,10.27
2023-05-04T23:20:01.513Z,10.07
2023-05-04T23:22:28.840Z,11.07
2023-05-04T23:24:55.920Z,10.50
2023-05-04T23:27:23.290Z,10.15
2023-05-04T23:29:50.331Z,10.00
2023-05-04T23:32:17.618Z,10.23
2023-05-04T23:34:46.285Z,10.13
2023-05-04T23:37:13.534Z,10.00
2023-05-04T23:39:40.576Z,10.13
2023-05-04T23:42:07.798Z,9.57
2023-05-04T23:44:34.789Z,9.60
2023-05-04T23:47:02.053Z,9.60
2023-05-04T23:49:29.262Z,8.93
2023-05-04T23:51:56.516Z,7.65
2023-05-04T23:54:23.597Z,8.35
2023-05-04T23:56:51.015Z,8.18
2023-05-04T23:59:18.095Z,8.27
